CYKJ

Key Lake Airport

Key Lake, Saskatchewan, Canada
METAR CYKJ 211300Z AUTO 11005KT 3SM RA BR BKN010 BKN037 BKN060 OVC072 14/13 A3010 RMK SLP203 DENSITY ALT 1700FT
Observed Flight Rules
Jul-21 @ 13:00 UTC (45 minutes ago) Marginal Visual Flight Rules
Wind Visibility Clouds Conditions
110° at 5 knots 3 miles
  • Broken at 1,000' AGL
  • Broken at 3,700' AGL
  • Broken at 6,000' AGL
  • Overcast at 7,200' AGL
  • Rain
  • Mist
Temperatures Readings
Current 14°C / 57°F
Dewpoint 13°C / 55°F
Humidity 94%
Altimeter 30.1" Hg
Pressure 1020.3 hPa
Elevation 509
METAR CYKJ 211300Z AUTO 11005KT 3SM RA BR BKN010 BKN037 BKN060 OVC072 14/13 A3010 RMK SLP203 DENSITY ALT 1700FT
Observed Flight Rules
Jul-21 @ 13:00 UTC
(45 minutes ago)
MVFR
Wind Visibility
110° at 5 knots 3 miles
Clouds
  • Broken at 1,000' AGL
  • Broken at 3,700' AGL
  • Broken at 6,000' AGL
  • Overcast at 7,200' AGL
Conditions
  • Rain
  • Mist
Temperature Dewpoint
14°C / 57°F 13°C / 55°F
Humidity Altimeter Pressure
94% 30.1" Hg 1020.3 hPa